createdAt,value
2018-03-30T00:00:22.911Z,42.10
2018-03-30T00:00:54.573Z,42.30
2018-03-30T00:01:44.936Z,42.20
2018-03-30T00:02:16.627Z,42.10
2018-03-30T00:02:48.256Z,42.10
2018-03-30T00:03:19.882Z,42.40
2018-03-30T00:03:51.532Z,42.30
2018-03-30T00:04:23.228Z,42.30
2018-03-30T00:04:54.888Z,42.70
2018-03-30T00:05:26.577Z,42.60
2018-03-30T00:05:58.232Z,42.60
2018-03-30T00:06:29.869Z,42.70
2018-03-30T00:07:05.684Z,42.50
2018-03-30T00:07:37.329Z,43.00
2018-03-30T00:08:08.979Z,42.40
2018-03-30T00:08:40.701Z,42.60
2018-03-30T00:09:30.769Z,42.60
2018-03-30T00:10:02.389Z,42.30
2018-03-30T00:10:40.162Z,42.10
2018-03-30T00:11:11.829Z,41.80
2018-03-30T00:11:43.484Z,42.00
2018-03-30T00:12:15.139Z,42.30
2018-03-30T00:12:46.772Z,41.90
2018-03-30T00:13:18.421Z,42.00
2018-03-30T00:13:50.045Z,41.80
2018-03-30T00:14:21.685Z,41.70
2018-03-30T00:14:53.307Z,41.60
2018-03-30T00:15:24.929Z,41.50
2018-03-30T00:15:56.557Z,41.60
2018-03-30T00:16:28.172Z,41.90
2018-03-30T00:16:59.807Z,41.30
2018-03-30T00:17:31.420Z,41.50
2018-03-30T00:18:03.071Z,41.60
2018-03-30T00:18:34.697Z,41.50
2018-03-30T00:19:06.339Z,41.50
2018-03-30T00:19:37.992Z,41.70
2018-03-30T00:20:09.639Z,41.60
2018-03-30T00:20:41.269Z,41.60
2018-03-30T00:21:12.901Z,41.00
2018-03-30T00:21:52.373Z,41.20
2018-03-30T00:22:24.004Z,41.30
2018-03-30T00:22:55.675Z,40.60
2018-03-30T00:23:27.321Z,40.60
2018-03-30T00:23:58.964Z,39.90
2018-03-30T00:24:30.565Z,39.30
2018-03-30T00:25:02.242Z,40.00
2018-03-30T00:25:33.870Z,40.30
2018-03-30T00:26:05.497Z,40.60
2018-03-30T00:26:37.190Z,40.60
2018-03-30T00:27:08.803Z,40.60
2018-03-30T00:27:40.431Z,41.00
2018-03-30T00:28:12.060Z,40.20
2018-03-30T00:28:43.716Z,40.40
2018-03-30T00:29:15.344Z,40.80
2018-03-30T00:29:46.976Z,40.70
2018-03-30T00:30:18.592Z,40.90
2018-03-30T00:30:50.231Z,41.10
2018-03-30T00:31:21.852Z,40.00
2018-03-30T00:31:53.490Z,39.90
2018-03-30T00:32:25.191Z,39.70
2018-03-30T00:32:56.817Z,40.20
2018-03-30T00:33:28.483Z,40.20
2018-03-30T00:34:00.128Z,39.80
2018-03-30T00:34:31.760Z,40.10
2018-03-30T00:35:03.405Z,40.30
2018-03-30T00:35:35.089Z,40.50
2018-03-30T00:36:06.699Z,40.80
2018-03-30T00:36:38.352Z,40.80
2018-03-30T00:37:10.013Z,39.80
2018-03-30T00:37:41.629Z,39.90
2018-03-30T00:38:13.335Z,40.60
2018-03-30T00:38:44.952Z,40.50
2018-03-30T00:39:16.604Z,40.40
2018-03-30T00:39:48.245Z,40.00
2018-03-30T00:40:19.876Z,40.40
2018-03-30T00:40:51.517Z,40.60
2018-03-30T00:41:23.182Z,40.60
2018-03-30T00:41:54.804Z,40.40
2018-03-30T00:42:26.444Z,40.10
2018-03-30T00:42:58.115Z,40.20
2018-03-30T00:43:29.714Z,40.20
2018-03-30T00:44:01.350Z,40.30
2018-03-30T00:44:32.973Z,40.50
2018-03-30T00:45:04.603Z,40.10
2018-03-30T00:45:36.269Z,39.90
2018-03-30T00:46:07.917Z,40.60
2018-03-30T00:46:39.586Z,40.60
2018-03-30T00:47:11.241Z,40.40
2018-03-30T00:47:42.898Z,40.50
2018-03-30T00:48:14.560Z,40.20
2018-03-30T00:48:46.221Z,40.60
2018-03-30T00:49:17.844Z,40.70
2018-03-30T00:49:49.480Z,41.00
2018-03-30T00:50:21.150Z,40.90
2018-03-30T00:50:52.775Z,41.30
2018-03-30T00:51:24.489Z,40.20
2018-03-30T00:51:56.129Z,40.20
2018-03-30T00:52:27.770Z,40.10
2018-03-30T00:52:59.437Z,40.30
2018-03-30T00:53:46.188Z,39.80
2018-03-30T00:54:17.826Z,39.20
2018-03-30T00:54:49.452Z,39.60
2018-03-30T00:55:21.093Z,39.80
2018-03-30T00:55:52.761Z,39.90
2018-03-30T00:56:24.398Z,39.80
2018-03-30T00:56:56.065Z,40.10
2018-03-30T00:57:27.712Z,40.20
2018-03-30T00:57:59.375Z,40.30
2018-03-30T00:58:31.076Z,40.30
2018-03-30T00:59:02.736Z,39.90
2018-03-30T00:59:34.418Z,38.90
2018-03-30T01:00:06.100Z,38.90
2018-03-30T01:00:37.759Z,39.20
2018-03-30T01:01:09.413Z,39.40
2018-03-30T01:01:41.062Z,39.20
2018-03-30T01:02:12.715Z,39.30
2018-03-30T01:02:44.413Z,39.10
2018-03-30T01:03:16.093Z,39.10
2018-03-30T01:03:47.720Z,39.60
2018-03-30T01:04:19.368Z,39.20
2018-03-30T01:04:51.018Z,39.00
2018-03-30T01:05:22.641Z,39.00
2018-03-30T01:05:54.296Z,39.30
2018-03-30T01:06:25.928Z,39.30
2018-03-30T01:06:57.724Z,39.30
2018-03-30T01:07:29.429Z,39.40
2018-03-30T01:08:01.057Z,39.30
2018-03-30T01:08:32.720Z,39.10
2018-03-30T01:09:04.400Z,39.00
2018-03-30T01:09:36.068Z,38.50
2018-03-30T01:10:07.777Z,38.00
2018-03-30T01:10:39.415Z,38.00
2018-03-30T01:11:11.089Z,37.30
2018-03-30T01:11:42.745Z,37.70
2018-03-30T01:12:14.394Z,37.50
2018-03-30T01:12:46.018Z,37.80
2018-03-30T01:13:17.634Z,38.10
2018-03-30T01:13:49.300Z,38.30
2018-03-30T01:14:21.010Z,38.30
2018-03-30T01:14:52.643Z,38.60
2018-03-30T01:15:24.312Z,38.00
2018-03-30T01:15:55.931Z,37.80
2018-03-30T01:16:27.570Z,37.70
2018-03-30T01:16:59.208Z,37.90
2018-03-30T01:17:30.836Z,37.80
2018-03-30T01:18:02.497Z,37.80
2018-03-30T01:18:34.177Z,38.00
2018-03-30T01:19:05.927Z,38.40
2018-03-30T01:19:37.564Z,38.00
2018-03-30T01:20:09.224Z,38.40
2018-03-30T01:20:40.900Z,38.10
2018-03-30T01:21:12.540Z,37.50
2018-03-30T01:21:44.198Z,37.70
2018-03-30T01:22:15.843Z,37.90
2018-03-30T01:22:47.486Z,37.90
2018-03-30T01:23:19.128Z,38.00
2018-03-30T01:23:50.827Z,37.50
2018-03-30T01:24:22.475Z,37.40
2018-03-30T01:24:54.160Z,37.50
2018-03-30T01:25:25.817Z,37.80
2018-03-30T01:25:57.484Z,38.10
2018-03-30T01:26:29.152Z,38.10
2018-03-30T01:27:00.761Z,38.30
2018-03-30T01:27:32.417Z,38.60
2018-03-30T01:28:04.097Z,38.30
2018-03-30T01:28:35.786Z,38.20
2018-03-30T01:29:07.416Z,38.00
2018-03-30T01:29:39.085Z,38.20
2018-03-30T01:30:10.739Z,38.40
2018-03-30T01:30:42.422Z,38.40
2018-03-30T01:31:14.064Z,38.40
2018-03-30T01:31:45.702Z,38.70
2018-03-30T01:32:17.385Z,38.80
2018-03-30T01:32:49.007Z,38.90
2018-03-30T01:33:20.660Z,38.70
2018-03-30T01:33:52.292Z,38.60
2018-03-30T01:34:23.909Z,38.20
2018-03-30T01:34:55.543Z,38.30
2018-03-30T01:35:27.191Z,38.60
2018-03-30T01:35:58.800Z,38.70
2018-03-30T01:36:30.421Z,38.10
2018-03-30T01:37:02.129Z,38.00
2018-03-30T01:37:33.752Z,38.30
2018-03-30T01:38:05.411Z,38.10
2018-03-30T01:38:37.083Z,38.00
2018-03-30T01:39:08.739Z,37.60
2018-03-30T01:39:40.356Z,38.30
2018-03-30T01:40:11.973Z,37.80
2018-03-30T01:40:43.621Z,37.80
2018-03-30T01:41:15.230Z,37.90
2018-03-30T01:41:46.881Z,37.20
2018-03-30T01:42:18.533Z,37.50
2018-03-30T01:42:50.168Z,36.90
2018-03-30T01:43:21.842Z,36.70
2018-03-30T01:43:53.456Z,36.70
2018-03-30T01:44:25.124Z,36.00
2018-03-30T01:44:56.767Z,35.70
2018-03-30T01:45:28.440Z,36.10
2018-03-30T01:46:00.065Z,35.70
2018-03-30T01:46:31.702Z,36.20
2018-03-30T01:47:03.396Z,35.60
2018-03-30T01:47:35.068Z,36.00
2018-03-30T01:48:06.685Z,35.70
2018-03-30T01:48:38.318Z,36.10
2018-03-30T01:49:09.982Z,36.00
2018-03-30T01:49:41.691Z,36.30
2018-03-30T01:50:13.314Z,36.20
2018-03-30T01:50:44.938Z,36.50
2018-03-30T01:51:16.617Z,36.00
2018-03-30T01:51:48.220Z,36.20
2018-03-30T01:52:19.930Z,36.50
2018-03-30T01:52:51.563Z,36.80
2018-03-30T01:53:23.229Z,36.60
2018-03-30T01:53:54.852Z,36.30
2018-03-30T01:54:26.476Z,36.70
2018-03-30T01:54:58.115Z,36.60
2018-03-30T01:55:29.768Z,36.50
2018-03-30T01:56:01.448Z,36.70
2018-03-30T01:56:33.114Z,36.70
2018-03-30T01:57:04.713Z,36.70
2018-03-30T01:57:36.358Z,37.00
2018-03-30T01:58:08.032Z,37.20
2018-03-30T01:58:39.660Z,37.20
2018-03-30T01:59:11.306Z,37.20
2018-03-30T01:59:42.916Z,37.00
2018-03-30T02:00:14.550Z,37.20
2018-03-30T02:00:46.230Z,37.30
2018-03-30T02:01:17.874Z,37.30
2018-03-30T02:01:49.552Z,37.30
2018-03-30T02:02:21.169Z,37.30
2018-03-30T02:02:52.793Z,37.20
2018-03-30T02:03:24.426Z,37.00
2018-03-30T02:03:56.077Z,37.40
2018-03-30T02:04:27.729Z,37.50
2018-03-30T02:04:59.376Z,37.60
2018-03-30T02:05:31.013Z,37.90
2018-03-30T02:06:02.667Z,38.40
2018-03-30T02:06:34.301Z,38.40
2018-03-30T02:07:05.944Z,38.60
2018-03-30T02:07:37.615Z,38.10
2018-03-30T02:08:09.283Z,38.20
2018-03-30T02:08:40.928Z,38.40
2018-03-30T02:09:12.561Z,38.40
2018-03-30T02:09:44.203Z,38.30
2018-03-30T02:10:15.857Z,38.60
2018-03-30T02:10:47.510Z,38.40
2018-03-30T02:11:19.140Z,38.40
2018-03-30T02:11:50.792Z,38.60
2018-03-30T02:12:22.443Z,38.00
2018-03-30T02:12:54.065Z,38.10
2018-03-30T02:13:25.705Z,38.30
2018-03-30T02:13:57.364Z,38.40
2018-03-30T02:14:29.003Z,38.50
2018-03-30T02:15:00.632Z,38.40
2018-03-30T02:15:32.269Z,38.60
2018-03-30T02:16:03.963Z,39.00
2018-03-30T02:16:35.620Z,38.90
2018-03-30T02:17:07.242Z,38.70
2018-03-30T02:17:38.932Z,39.30
2018-03-30T02:18:10.598Z,38.60
2018-03-30T02:18:42.269Z,38.60
2018-03-30T02:19:13.901Z,38.60
2018-03-30T02:19:45.538Z,38.70
2018-03-30T02:20:17.144Z,38.70
2018-03-30T02:20:48.757Z,38.70
2018-03-30T02:21:20.428Z,39.10
2018-03-30T02:21:52.048Z,38.80
2018-03-30T02:22:23.674Z,38.80
2018-03-30T02:22:55.310Z,39.00
2018-03-30T02:23:26.912Z,39.10
2018-03-30T02:23:58.562Z,39.50
2018-03-30T02:24:30.187Z,39.30
2018-03-30T02:25:01.835Z,39.30
2018-03-30T02:25:33.474Z,39.30
2018-03-30T02:26:05.128Z,39.10
2018-03-30T02:26:36.765Z,39.20
2018-03-30T02:27:08.414Z,39.30
2018-03-30T02:27:40.021Z,39.30
2018-03-30T02:28:11.646Z,39.50
2018-03-30T02:28:43.260Z,39.60
2018-03-30T02:29:14.912Z,39.70
2018-03-30T02:29:46.528Z,40.00
2018-03-30T02:30:18.178Z,40.10
2018-03-30T02:30:49.828Z,39.70
2018-03-30T02:31:21.451Z,39.80
2018-03-30T02:31:53.073Z,39.60
2018-03-30T02:32:24.692Z,39.70
2018-03-30T02:32:56.324Z,39.60
2018-03-30T02:33:27.943Z,39.50
2018-03-30T02:33:59.556Z,39.70
2018-03-30T02:34:31.221Z,39.70
2018-03-30T02:35:02.875Z,39.50
2018-03-30T02:35:34.573Z,39.50
2018-03-30T02:36:06.243Z,39.70
2018-03-30T02:36:37.881Z,39.90
2018-03-30T02:37:09.511Z,39.90
2018-03-30T02:37:41.144Z,40.00
2018-03-30T02:38:12.820Z,40.10
2018-03-30T02:38:44.432Z,40.20
2018-03-30T02:39:16.057Z,40.40
2018-03-30T02:39:47.692Z,40.30
2018-03-30T02:40:19.343Z,40.40
2018-03-30T02:40:51.005Z,40.20
2018-03-30T02:41:22.626Z,40.30
2018-03-30T02:41:54.273Z,40.40
2018-03-30T02:42:25.933Z,40.10
2018-03-30T02:42:57.571Z,40.60
2018-03-30T02:43:29.202Z,40.90
2018-03-30T02:44:00.849Z,41.10
2018-03-30T02:44:32.511Z,41.20
2018-03-30T02:45:04.167Z,41.20
2018-03-30T02:45:35.801Z,41.60
2018-03-30T02:46:07.417Z,42.00
2018-03-30T02:46:39.057Z,41.70
2018-03-30T02:47:10.684Z,42.00
2018-03-30T02:47:42.370Z,42.10
2018-03-30T02:48:14.019Z,42.30
2018-03-30T02:48:45.705Z,42.60
2018-03-30T02:49:17.340Z,42.20
2018-03-30T02:49:48.961Z,42.60
2018-03-30T02:50:20.566Z,43.20
2018-03-30T02:50:52.221Z,43.20
2018-03-30T02:51:23.863Z,43.20
2018-03-30T02:51:55.489Z,43.50
2018-03-30T02:52:27.099Z,43.40
2018-03-30T02:52:58.741Z,43.20
2018-03-30T02:53:30.367Z,43.40
2018-03-30T02:54:02.004Z,43.10
2018-03-30T02:54:33.652Z,43.20
2018-03-30T02:55:05.299Z,42.90
2018-03-30T02:55:36.973Z,43.20
2018-03-30T02:56:08.615Z,43.00
2018-03-30T02:56:40.229Z,43.70
2018-03-30T02:57:11.892Z,43.10
2018-03-30T02:57:43.532Z,43.80
2018-03-30T02:58:15.196Z,43.50
2018-03-30T02:58:46.878Z,43.20
2018-03-30T02:59:18.517Z,43.20
2018-03-30T02:59:50.154Z,43.20
2018-03-30T03:00:21.821Z,43.20
2018-03-30T03:00:53.489Z,43.10
2018-03-30T03:01:25.146Z,42.60
2018-03-30T03:01:56.809Z,42.70
2018-03-30T03:02:28.413Z,42.70
2018-03-30T03:03:00.062Z,42.60
2018-03-30T03:03:31.765Z,42.70
2018-03-30T03:04:03.401Z,42.60
2018-03-30T03:04:35.081Z,42.50
2018-03-30T03:05:06.743Z,42.40
2018-03-30T03:05:38.386Z,42.30
2018-03-30T03:06:10.030Z,42.70
2018-03-30T03:06:41.723Z,42.80
2018-03-30T03:07:13.361Z,42.80
2018-03-30T03:07:45.012Z,42.90
2018-03-30T03:08:16.603Z,42.80
2018-03-30T03:08:48.228Z,43.00
2018-03-30T03:09:19.844Z,43.00
2018-03-30T03:09:51.484Z,43.20
2018-03-30T03:10:23.090Z,43.40
2018-03-30T03:10:54.701Z,43.50
2018-03-30T03:11:26.340Z,43.50
2018-03-30T03:11:57.947Z,43.50
2018-03-30T03:12:29.614Z,43.70
2018-03-30T03:13:01.249Z,43.70
2018-03-30T03:13:32.864Z,43.60
2018-03-30T03:14:04.568Z,43.80
2018-03-30T03:14:36.280Z,44.00
2018-03-30T03:15:07.932Z,44.30
2018-03-30T03:15:39.562Z,44.20
2018-03-30T03:16:11.177Z,44.00
2018-03-30T03:16:42.826Z,44.30
2018-03-30T03:17:14.451Z,44.40
2018-03-30T03:17:46.082Z,44.40
2018-03-30T03:18:17.702Z,44.60
2018-03-30T03:18:49.324Z,44.60
2018-03-30T03:19:20.958Z,44.60
2018-03-30T03:19:52.616Z,44.60
2018-03-30T03:20:24.259Z,44.80
2018-03-30T03:20:55.898Z,44.40
2018-03-30T03:21:27.516Z,44.50
2018-03-30T03:21:59.154Z,44.90
2018-03-30T03:22:30.789Z,44.90
2018-03-30T03:23:02.446Z,44.80
2018-03-30T03:23:34.063Z,45.00
2018-03-30T03:24:05.733Z,45.00
2018-03-30T03:24:37.425Z,45.50
2018-03-30T03:25:09.091Z,45.60
2018-03-30T03:25:40.748Z,45.60
2018-03-30T03:26:12.370Z,45.90
2018-03-30T03:26:44.048Z,45.80
2018-03-30T03:27:15.692Z,45.60
2018-03-30T03:27:47.342Z,46.00
2018-03-30T03:28:18.996Z,45.80
2018-03-30T03:28:50.668Z,45.90
2018-03-30T03:29:22.281Z,46.30
2018-03-30T03:29:53.920Z,46.70
2018-03-30T03:30:25.545Z,46.80
2018-03-30T03:30:57.183Z,46.90
2018-03-30T03:31:28.855Z,47.10
2018-03-30T03:32:00.468Z,47.20
2018-03-30T03:32:32.086Z,47.00
2018-03-30T03:33:03.778Z,47.00
2018-03-30T03:33:35.394Z,47.20
2018-03-30T03:34:07.040Z,47.50
2018-03-30T03:34:38.674Z,47.60
2018-03-30T03:35:10.340Z,47.80
2018-03-30T03:35:41.966Z,48.40
2018-03-30T03:36:13.607Z,48.60
2018-03-30T03:36:45.216Z,48.90
2018-03-30T03:37:16.828Z,49.10
2018-03-30T03:37:48.495Z,49.60
2018-03-30T03:38:20.104Z,49.90
2018-03-30T03:38:51.743Z,50.20
2018-03-30T03:39:23.352Z,50.60
2018-03-30T03:39:54.970Z,50.40
2018-03-30T03:40:26.629Z,50.70
2018-03-30T03:40:58.263Z,51.10
2018-03-30T03:41:29.906Z,51.40
2018-03-30T03:42:01.552Z,51.40
2018-03-30T03:42:33.163Z,51.40
2018-03-30T03:43:04.806Z,51.70
2018-03-30T03:43:36.411Z,51.30
2018-03-30T03:44:08.074Z,51.80
2018-03-30T03:44:39.708Z,51.80
2018-03-30T03:45:11.364Z,51.40
2018-03-30T03:45:43.030Z,51.20
2018-03-30T03:46:14.668Z,51.20
2018-03-30T03:46:46.312Z,51.10
2018-03-30T03:47:17.944Z,51.10
2018-03-30T03:47:49.566Z,51.00
2018-03-30T03:48:21.204Z,51.30
2018-03-30T03:48:52.850Z,51.50
2018-03-30T03:49:24.523Z,51.50
2018-03-30T03:49:56.199Z,50.90
2018-03-30T03:50:27.887Z,51.00
2018-03-30T03:50:59.528Z,51.00
2018-03-30T03:51:31.138Z,50.90
2018-03-30T03:52:02.842Z,50.80
2018-03-30T03:52:34.495Z,50.80
2018-03-30T03:53:06.162Z,50.90
2018-03-30T03:53:37.826Z,51.20
2018-03-30T03:54:09.448Z,51.20
2018-03-30T03:54:41.117Z,51.30
2018-03-30T03:55:12.752Z,51.10
2018-03-30T03:55:44.381Z,50.90
2018-03-30T03:56:16.008Z,50.70
2018-03-30T03:56:47.642Z,50.50
2018-03-30T03:57:19.258Z,50.50
2018-03-30T03:57:50.882Z,50.30
2018-03-30T03:58:22.516Z,50.30
2018-03-30T03:58:54.150Z,50.30
2018-03-30T03:59:25.792Z,50.10
2018-03-30T03:59:57.482Z,50.40
2018-03-30T04:00:29.114Z,50.40
2018-03-30T04:01:00.746Z,50.40
2018-03-30T04:01:32.400Z,50.20
2018-03-30T04:02:04.047Z,50.40
2018-03-30T04:02:35.715Z,50.20
2018-03-30T04:03:07.331Z,50.10
2018-03-30T04:03:38.970Z,50.40
2018-03-30T04:04:10.625Z,50.30
2018-03-30T04:04:42.257Z,50.00
2018-03-30T04:05:13.915Z,49.80
2018-03-30T04:05:45.560Z,49.70
2018-03-30T04:06:17.193Z,49.50
2018-03-30T04:06:48.836Z,49.90
2018-03-30T04:07:20.469Z,49.90
2018-03-30T04:07:55.468Z,49.60
2018-03-30T04:08:27.101Z,49.40
2018-03-30T04:08:58.724Z,49.50
2018-03-30T04:09:30.390Z,49.80
2018-03-30T04:10:02.024Z,49.80
2018-03-30T04:10:33.694Z,49.60
2018-03-30T04:11:05.322Z,49.50
2018-03-30T04:11:36.970Z,49.80
2018-03-30T04:12:08.626Z,49.60
2018-03-30T04:12:40.250Z,49.30
2018-03-30T04:13:11.899Z,49.20
2018-03-30T04:13:43.560Z,49.20
2018-03-30T04:14:15.234Z,49.20
2018-03-30T04:14:46.853Z,49.30
2018-03-30T04:15:18.484Z,49.30
2018-03-30T04:15:50.140Z,49.00
2018-03-30T04:16:21.799Z,49.20
2018-03-30T04:16:53.435Z,49.40
2018-03-30T04:17:25.065Z,49.20
2018-03-30T04:17:56.752Z,49.20
2018-03-30T04:18:28.368Z,49.10
2018-03-30T04:19:00.028Z,49.00
2018-03-30T04:19:31.649Z,49.00
2018-03-30T04:20:03.283Z,49.00
2018-03-30T04:20:34.950Z,49.10
2018-03-30T04:21:06.606Z,49.30
2018-03-30T04:21:38.228Z,49.40
2018-03-30T04:22:09.900Z,49.60
2018-03-30T04:22:41.565Z,49.50
2018-03-30T04:23:13.268Z,49.30
2018-03-30T04:23:44.953Z,48.90
2018-03-30T04:24:16.587Z,48.70
2018-03-30T04:24:48.229Z,48.70
2018-03-30T04:25:19.854Z,48.40
2018-03-30T04:25:51.464Z,48.90
2018-03-30T04:26:23.134Z,48.90
2018-03-30T04:26:54.766Z,48.70
2018-03-30T04:27:30.386Z,48.50
2018-03-30T04:28:02.027Z,48.30
2018-03-30T04:28:33.663Z,48.40
2018-03-30T04:29:05.296Z,48.50
2018-03-30T04:29:36.967Z,48.40
2018-03-30T04:30:08.609Z,48.60
2018-03-30T04:30:40.237Z,48.60
2018-03-30T04:31:11.866Z,48.60
2018-03-30T04:31:43.556Z,48.40
2018-03-30T04:32:15.189Z,48.20
2018-03-30T04:32:46.817Z,48.10
2018-03-30T04:33:18.454Z,47.80
2018-03-30T04:33:50.099Z,47.80
2018-03-30T04:34:21.722Z,47.50
2018-03-30T04:34:53.366Z,47.70
2018-03-30T04:35:25.009Z,48.00
2018-03-30T04:35:56.684Z,48.00
2018-03-30T04:36:28.310Z,48.00
2018-03-30T04:37:00.026Z,48.00
2018-03-30T04:37:31.678Z,47.80
2018-03-30T04:38:03.363Z,47.70
2018-03-30T04:38:34.995Z,47.60
2018-03-30T04:39:06.686Z,47.50
2018-03-30T04:39:38.349Z,47.50
2018-03-30T04:40:10.005Z,47.30
2018-03-30T04:40:41.634Z,47.50
2018-03-30T04:41:13.247Z,47.60
2018-03-30T04:41:44.915Z,48.20
2018-03-30T04:42:16.542Z,48.70
2018-03-30T04:42:48.168Z,48.90
2018-03-30T04:43:19.844Z,48.90
2018-03-30T04:43:51.472Z,48.70
2018-03-30T04:44:23.127Z,48.40
2018-03-30T04:44:54.747Z,48.40
2018-03-30T04:45:26.382Z,47.90
2018-03-30T04:45:58.031Z,48.10
2018-03-30T04:46:29.697Z,48.30
2018-03-30T04:47:01.364Z,48.30
2018-03-30T04:47:33.030Z,48.10
2018-03-30T04:48:04.655Z,48.10
2018-03-30T04:48:36.290Z,48.10
2018-03-30T04:49:07.921Z,48.10
2018-03-30T04:49:39.533Z,48.30
2018-03-30T04:50:11.182Z,48.40
2018-03-30T04:50:42.829Z,48.50
2018-03-30T04:51:14.481Z,48.70
2018-03-30T04:51:46.175Z,48.00
2018-03-30T04:52:17.792Z,48.60
2018-03-30T04:52:49.455Z,48.60
2018-03-30T04:53:21.106Z,48.40
2018-03-30T04:53:52.765Z,48.30
2018-03-30T04:54:24.420Z,48.40
2018-03-30T04:54:56.080Z,48.00
2018-03-30T04:55:27.697Z,48.00
2018-03-30T04:55:59.381Z,47.90
2018-03-30T04:56:31.065Z,47.80
2018-03-30T04:57:02.732Z,47.50
2018-03-30T04:57:34.423Z,47.30
2018-03-30T04:58:06.035Z,47.60
2018-03-30T04:58:37.714Z,47.90
2018-03-30T04:59:09.384Z,47.90
2018-03-30T04:59:41.039Z,47.80
2018-03-30T05:00:12.649Z,47.40
2018-03-30T05:00:44.273Z,47.70
2018-03-30T05:01:15.918Z,47.90
2018-03-30T05:01:47.525Z,48.00
2018-03-30T05:02:19.175Z,48.10
2018-03-30T05:02:50.811Z,48.10
2018-03-30T05:03:22.453Z,48.30
2018-03-30T05:03:54.074Z,48.00
2018-03-30T05:04:25.705Z,47.70
2018-03-30T05:04:57.453Z,47.80
2018-03-30T05:05:29.067Z,47.80
2018-03-30T05:06:00.677Z,47.80
2018-03-30T05:06:32.342Z,47.90
2018-03-30T05:07:03.968Z,47.70
2018-03-30T05:07:35.601Z,47.60
2018-03-30T05:08:07.237Z,47.60
2018-03-30T05:08:38.857Z,47.60
2018-03-30T05:09:10.485Z,47.50
2018-03-30T05:09:42.111Z,47.60
2018-03-30T05:10:13.752Z,47.60
2018-03-30T05:10:45.396Z,48.10
2018-03-30T05:11:17.014Z,48.10
2018-03-30T05:11:48.639Z,48.10
2018-03-30T05:12:20.287Z,48.20
2018-03-30T05:12:51.971Z,48.00
2018-03-30T05:13:23.661Z,47.60
2018-03-30T05:13:55.301Z,48.10
2018-03-30T05:14:26.929Z,47.90
2018-03-30T05:14:58.640Z,48.00
2018-03-30T05:15:30.275Z,47.90
2018-03-30T05:16:01.910Z,47.60
2018-03-30T05:16:33.588Z,47.70
2018-03-30T05:17:05.198Z,47.60
2018-03-30T05:17:36.854Z,47.80
2018-03-30T05:18:08.463Z,48.00
2018-03-30T05:18:40.122Z,47.70
2018-03-30T05:19:11.747Z,47.40
2018-03-30T05:19:43.433Z,47.50
2018-03-30T05:20:15.128Z,47.50
2018-03-30T05:20:46.791Z,48.00
2018-03-30T05:21:18.449Z,48.10
2018-03-30T05:21:50.103Z,48.30
2018-03-30T05:22:21.744Z,48.30
2018-03-30T05:22:53.393Z,48.10
2018-03-30T05:23:25.093Z,48.00
2018-03-30T05:23:56.714Z,47.80
2018-03-30T05:24:28.439Z,47.80
2018-03-30T05:25:00.102Z,47.90
2018-03-30T05:26:18.381Z,47.80
2018-03-30T05:26:50.061Z,47.30
2018-03-30T05:27:21.677Z,47.40
2018-03-30T05:27:53.295Z,47.40
2018-03-30T05:28:24.945Z,47.60
2018-03-30T05:28:56.596Z,47.70
2018-03-30T05:29:28.234Z,47.80
2018-03-30T05:29:59.853Z,47.80
2018-03-30T05:30:31.503Z,47.80
2018-03-30T05:31:03.136Z,47.40
2018-03-30T05:31:34.762Z,47.60
2018-03-30T05:32:06.421Z,47.60
2018-03-30T05:32:38.091Z,47.50
2018-03-30T05:33:09.719Z,47.50
2018-03-30T05:33:41.339Z,47.70
2018-03-30T05:34:13.033Z,47.80
2018-03-30T05:34:44.669Z,47.50
2018-03-30T05:35:16.328Z,47.50
2018-03-30T05:35:47.941Z,47.50
2018-03-30T05:36:19.559Z,47.50
2018-03-30T05:36:51.185Z,47.50
2018-03-30T05:37:22.834Z,47.30
2018-03-30T05:37:54.465Z,47.50
2018-03-30T05:38:26.093Z,47.80
2018-03-30T05:38:57.765Z,47.50
2018-03-30T05:39:29.409Z,47.60
2018-03-30T05:40:01.051Z,47.50
2018-03-30T05:40:32.687Z,47.40
2018-03-30T05:41:04.341Z,47.30
2018-03-30T05:41:36.019Z,47.30
2018-03-30T05:42:07.642Z,47.30
2018-03-30T05:42:39.275Z,47.50
2018-03-30T05:43:10.903Z,47.40
2018-03-30T05:43:42.546Z,47.20
2018-03-30T05:44:14.214Z,47.50
2018-03-30T05:44:45.850Z,47.50
2018-03-30T05:45:17.465Z,47.40
2018-03-30T05:45:49.091Z,47.40
2018-03-30T05:46:20.756Z,47.40
2018-03-30T05:46:52.358Z,47.30
2018-03-30T05:47:23.990Z,47.00
2018-03-30T05:47:55.645Z,47.10
2018-03-30T05:48:27.295Z,46.90
2018-03-30T05:48:58.946Z,46.90
2018-03-30T05:49:30.628Z,46.40
2018-03-30T05:50:02.305Z,46.70
2018-03-30T05:50:33.956Z,46.70
2018-03-30T05:51:05.583Z,46.60
2018-03-30T05:51:37.211Z,46.50
2018-03-30T05:52:08.852Z,46.40
2018-03-30T05:52:40.493Z,46.20
2018-03-30T05:53:12.340Z,46.30
2018-03-30T05:53:43.965Z,45.80
2018-03-30T05:54:15.643Z,46.40
2018-03-30T05:54:47.269Z,46.20
2018-03-30T05:55:18.899Z,46.30
2018-03-30T05:55:50.563Z,46.00
2018-03-30T05:56:22.217Z,46.00
2018-03-30T05:56:53.837Z,46.20
2018-03-30T05:57:25.457Z,46.10
2018-03-30T05:57:57.111Z,46.10
2018-03-30T05:58:28.735Z,46.10
2018-03-30T05:59:00.392Z,46.00
2018-03-30T05:59:32.033Z,45.60
2018-03-30T06:00:06.558Z,45.20
2018-03-30T06:00:38.256Z,45.70
2018-03-30T06:01:09.885Z,45.50
2018-03-30T06:01:41.553Z,45.30
2018-03-30T06:02:13.215Z,45.70
2018-03-30T06:02:44.856Z,45.60
2018-03-30T06:03:16.508Z,45.10
2018-03-30T06:03:48.155Z,45.00
2018-03-30T06:04:19.767Z,45.10
2018-03-30T06:04:51.431Z,45.00
2018-03-30T06:05:23.115Z,44.90
2018-03-30T06:05:54.729Z,45.00
2018-03-30T06:06:26.357Z,44.90
2018-03-30T06:06:57.981Z,44.70
2018-03-30T06:07:29.641Z,44.60
2018-03-30T06:08:01.294Z,44.80
2018-03-30T06:08:32.973Z,44.50
2018-03-30T06:09:04.629Z,44.50
2018-03-30T06:09:36.305Z,44.40
2018-03-30T06:10:07.959Z,44.40
2018-03-30T06:10:39.611Z,44.10
2018-03-30T06:11:11.254Z,44.10
2018-03-30T06:11:42.869Z,44.30
2018-03-30T06:12:14.503Z,44.30
2018-03-30T06:12:46.125Z,44.60
2018-03-30T06:13:17.783Z,44.70
2018-03-30T06:13:49.437Z,44.30
2018-03-30T06:14:21.141Z,44.10
2018-03-30T06:14:52.771Z,44.10
2018-03-30T06:15:24.438Z,43.90
2018-03-30T06:15:56.083Z,43.70
2018-03-30T06:16:27.703Z,43.80
2018-03-30T06:16:59.327Z,43.60
2018-03-30T06:17:31.001Z,43.60
2018-03-30T06:18:02.649Z,43.60
2018-03-30T06:18:34.307Z,43.20
2018-03-30T06:19:06.011Z,43.00
2018-03-30T06:19:37.598Z,43.60
2018-03-30T06:20:09.284Z,43.60
2018-03-30T06:20:40.927Z,43.30
2018-03-30T06:21:12.567Z,43.50
2018-03-30T06:21:44.201Z,44.00
2018-03-30T06:22:15.918Z,44.00
2018-03-30T06:22:47.537Z,44.00
2018-03-30T06:23:19.170Z,43.70
2018-03-30T06:23:50.826Z,43.50
2018-03-30T06:24:22.441Z,43.20
2018-03-30T06:24:54.061Z,42.80
2018-03-30T06:25:25.687Z,42.90
2018-03-30T06:25:57.344Z,43.10
2018-03-30T06:26:29.009Z,43.00
2018-03-30T06:27:00.672Z,43.10
2018-03-30T06:27:32.315Z,42.70
2018-03-30T06:28:03.997Z,42.60
2018-03-30T06:28:35.655Z,42.70
2018-03-30T06:29:07.265Z,42.60
2018-03-30T06:29:38.887Z,42.60
2018-03-30T06:30:10.541Z,41.80
2018-03-30T06:30:42.181Z,42.30
2018-03-30T06:31:13.801Z,42.20
2018-03-30T06:31:45.455Z,41.80
2018-03-30T06:32:17.122Z,41.80
2018-03-30T06:32:48.708Z,41.60
2018-03-30T06:33:20.360Z,42.30
2018-03-30T06:33:52.028Z,42.10
2018-03-30T06:34:23.663Z,42.00
2018-03-30T06:34:55.319Z,41.80
2018-03-30T06:35:26.971Z,41.90
2018-03-30T06:35:58.583Z,41.70
2018-03-30T06:36:30.199Z,40.90
2018-03-30T06:37:01.881Z,41.20
2018-03-30T06:37:33.529Z,41.10
2018-03-30T06:38:05.159Z,40.60
2018-03-30T06:38:36.837Z,40.80
2018-03-30T06:39:08.487Z,40.90
2018-03-30T06:39:40.226Z,40.70
2018-03-30T06:40:11.871Z,40.40
2018-03-30T06:40:43.513Z,40.10
2018-03-30T06:41:15.140Z,40.20
2018-03-30T06:41:46.754Z,39.60
2018-03-30T06:42:18.393Z,39.90
2018-03-30T06:42:50.027Z,39.80
2018-03-30T06:43:21.648Z,40.10
2018-03-30T06:43:53.313Z,40.00
2018-03-30T06:44:24.971Z,39.70
2018-03-30T06:44:56.630Z,39.90
2018-03-30T06:45:28.288Z,40.10
2018-03-30T06:45:59.953Z,39.40
2018-03-30T06:46:31.629Z,39.60
2018-03-30T06:47:03.263Z,40.20
2018-03-30T06:47:34.898Z,40.40
2018-03-30T06:48:06.541Z,40.30
2018-03-30T06:48:38.204Z,39.30
2018-03-30T06:49:09.858Z,39.80
2018-03-30T06:49:41.513Z,39.60